Timeline UpdatesTrip UpdatesNews PostsPvt Posts♥♥Travel TipsAdmin PostsConv PostsFollowed PostsChat RequestsBlog PostsPNR Posts

Disclaimer
Search
 
 
Fri Nov 28, 2014 20:03:32 ISTHomeTrainsΣChainsAtlasPNRForumGalleryNewsFAQTripsMembersLoginFeedback
No Recent News for this Train
Other Trains in the News **new
Latest...
⇐ Return Journey: Train# 53043

53044/Rajgir - Howrah Fast Passenger (UnReserved)

Time-Table HAS CHANGED.
Sep 03 2014 (12:25AM)
Change Departure Station:
Change Arrival Station:
Post a Train Travel TipPost a Train Travel Tip **new
Post a Comment/Question/Picture/VideoPost a Comment/Question/Picture/Video
Pantry/Catering
✕ NO Pantry Car
✕ NO Catering
Loco/Rake Reversals
BKP/Bakhtiyarpur Junction (5);
RSA - Rake Sharing
Rake/Coach Composition
Loco
HWH WDM 3A/3D
News    PNR    Forum    Time-Table    Availability    Fare Chart    Map    Arr/Dep History    Trips    Gallery    ΣChains    X/O    Timeline    
Travel Time: 16h 12m    48 halts    Distance: 480 km    Avg Speed: 29 km/hr
Type: Passenger
Zone: ER/Eastern
Departs @ 19:58 (Avg 1h 1m late)
Platform# 1
SMTWTFS
Jamalpur Junction/JMP 
Arrives @ 12:10 +1 night (Avg 1h 49m late)
Platform# 1
SMTWTFS
Kolkata Howrah Junction/HWH 

48 halts. 102 intermediate Stations between Jamalpur Junction and Kolkata Howrah Junction

Show ALL intermediate Stations  Show Old Time-Table

#TrkCodeStation NameX/OArrivesAvgDepartsAvgHaltPFDay#KmSpeedElevZoneAddress
1|--|RGDRajgir (3)  -12:40+49--1-176.43871mECRRajgir, Bihar
2|--|NLDNalanda (2)  12:58+1:1612:59+1:171m--1-165.24063mECRNational Highway 82, Bihar
3|--|BEHSBihar Sharif (2)  13:18+1:2713:23+1:375m--1-152.63656mECR06112-222306, Bihar
4|--|WENAWena (2)  13:46+1:3213:47+1:341m--1-138.6947mECRWena, Bihar
5|--|HRTHarnaut (3)X  14:21+1:0914:28+1:127m--1-133.55349mECRHarnaut, Bihar
6|--|BKPBakhtiyarpur Junction (5)XO14:40+5415:10+1:0130m--1-122.86851mECRPatna, Bihar
7/==/ATLAthmal Gola (2)  15:18+1:4915:19+1:491m--1-113.85052mECRPatna, Bihar
8/==/BARHBarh (3)X  15:30+4015:32+402m--1-104.77749mECRBarh, Bihar
9/==/PHKPunarakh (2)  15:40+1:5515:41+1:561m--1-94.52951mECRPunarakh, Bihar
10/==/MORMor (2)XO  15:58+1:5616:27+1:3829m--1-86.34946mECRMor, Bihar
11/==/MKAMokama Junction (4)  16:36+4716:40+474m--1-79.05648mECRPatna, Bihar
12/==/HTZHathidah Junction (2)X  16:49+1:3116:51+1:312m11-70.64650mECRMusahari, Bihar
13/==/RDUMRampur Dumra (3)O  16:56+1:4216:57+1:441m--1-66.83746mECRNational Highway 80, Bihar
14/==/BRYABarhiya (3)  17:06+1:0117:08+1:012m--1-61.22247mECRBarahiya, Bihar
15/==/MKBMankatha  17:34+1:3417:40+1:456m--1-51.83047mECRNational Highway 80, Bihar
16/==/LKRLuckeesarai Junction (2)X  17:51+1:3117:53+1:312m--1-46.21252mECRLakhisarai, Bihar
17/==/KIULKiul Junction (5)X  18:00+1:0118:25+5625m--1-44.83653mECRDist. Lakhisarai, Bihar
18|==|DNREDhanauri  18:35+1:3218:37+1:322m--1-38.84948mERNational Highway 80, Bihar
19|==|URENUrenX  18:43+1:3218:45+1:312m--1-33.95845mERUren, Bihar
20!==|KJHKajra (2)  18:50+1:3118:51+1:311m--1-29.16250mERLakhisarai District, Bihar
21|==|AHAAbhaipur (3)  18:58+1:1018:59+1:111m--1-21.84852mERAbhaipur, Bihar
22|==|MSDNMasudan (2)  19:04+1:3519:05+1:351m--1-17.86045mERMasudan, Bihar
23|==|DRHDharhara (2)  19:11+1:3419:12+1:341m--1-11.81855mERDharhara, Bihar
24|==|DRTPDasharathpur (2)  19:30+1:2519:31+1:251m--1-6.43248mERDharhara, Bihar
25|-=|JMPJamalpur Junction (4)»  19:43+5819:58+1:0115m110.04259mERDist: Munger 06344-243101, Bihar
26|-=|RPURRatanpur (2)  20:07+1:4620:08+1:461m--16.35846mERRatanpur Railway Station, Bihar
27|==|BUPBariarpur (3)  20:13+1:4720:14+1:501m--111.11142mERMunger, Bihar
28|==|KPRDKalyanpur Road (3)  20:21+1:4820:22+1:481m--112.41040mERMunger, Bihar
29|==|GNNAGangani (2)  20:29+1:4720:30+1:471m--113.613338mERGangania, Bihar
30|==|SGGSultanGanj (3)  20:37+1:4920:40+1:523m--129.16642mERSultanganj, Bihar
31|==|MVVMaheshi (2) new halt!!  20:46-20:47-1m--135.74137mERTilakpur, Bihar
32|==|AKNAkbarnagar (3)  20:52+1:5120:53+1:511m--139.14439mERTilakpur, Bihar
33|==|NATNathnagar (2)  21:01+1:5121:02+1:511m--149.34048mERBhagalpur, Bihar
34!==|BGPBhagalpur Junction (6)X  21:09+1:0621:19+1:0710m--154.05049mERBhagalpur, Bihar
35!==!SBOSabaur (3)  21:28+1:5721:29+2:001m--161.64442mERSabour, Bihar
36!==!LMMLailakh Mamalkha (2)  21:38+2:0121:39+2:071m--168.25836mERLailakh Mamlkha, Bihar
37!==!GGAGhoga (2)  21:45+2:1721:47+2:202m--174.06942mERGhoga, Bihar
38!==!EKCEkchari (1)  21:52+2:1921:53+2:201m1179.75237mERNational Highway 80, Bihar
39!==!CLGKahalgaon (2)  21:58+2:2522:00+2:292m1184.14944mERBhagalpur, Bihar
40!==!SVRPShivanarayanpur (2)X  22:14+2:0222:38+1:4724m--195.54847mERShivanarayanpur, Bihar
41!==!PPTPirpainti (2)  22:49+2:1222:51+2:152m--1104.45653mERBhagalpur, Bihar
42!==!MZCMirza Cheuki (3)X  23:00+2:1523:06+2:186m31112.92638mERBihar, Bihar
43!==!SBGSahibganj Junction (3)X  23:41+1:3423:59+1:3418m11128.05238mERSahibganj, Jharkhand
44!==!SLJSakrigali Junction (3)X  00:08+2:0900:09+2:181m--2135.85345mERSakrigali, Jharkhand
45!==!MJPMaharajpur (2)  00:16+2:2100:17+2:551m--2141.98534mERMoharajpur, Jharkhand
46|==!TLJTaljhari  00:27+3:1900:28+3:231m--2156.15838mERTaljhari, Jharkhand
47|==|KXEKalian Chak  00:33+3:2700:34+3:271m--2160.95845mERKalian Chak, Jharkhand
48|==|TPHTinpahar Junction (3)  00:39+3:2900:42+3:293m22165.75945mERBamangawan, Jharkhand
49|==|BKLEBakudi (3)  00:51+3:3300:52+3:331m--2174.52665mERBakudi, Jharkhand
50|==|BHWBarharwa Junction (3)X  01:10+2:4501:20+2:4610m22182.44436mERBarharwa, Jharkhand
51%==%GMANGumani (3)X  01:30+3:3101:31+3:311m--2189.86731mERGumani, Jharkhand
52%==%KLPKotalpukur (3)XO  01:37+3:3201:39+3:312m--2196.52240mERKotalpukur, Jharkhand
53%==%PKRPakur (2)X  02:10 02:11+1:5202:11 02:16+1:511 5m22208.56337mERDist:- Pakur, Jharkhand
54%==%RJGRajgram (3)  02:26+3:3202:27+3:331m22219.07032mERDist - Birbhum, West Bengal
55%==%MRRMurarai (3)X  02:37+3:3702:38+3:391m--2230.77036mERDist - Birbhum, West Bengal
56%==%NHTNalhati Junction (4)X  02:52+3:5802:54+4:032m22246.92948mERDist - Birbhum, West Bengal
57%==%RPHRampurhat (3)  03:23+2:4503:43+2:4320m--2261.06741mERDIST - Birbhum, West Bengal
58%==%SNTSainthia Junction (4)  04:08+3:0004:13+2:595m42289.04758mERDist - Birbhum, West Bengal
59%==%AMPAhmadpur Junction (3)O  04:30+3:5204:35 04:32+3:515 2m--2302.32546mERDist - Birbhum, West Bengal
60%==%PNEPrantik (3)  05:08+1:5505:09+1:551m--2317.55148mERDist - Birbhum, West Bengal
61%==%BHPBolpur Shantiniketan (3)  05:14+3:1305:19+3:125m--2321.86059mERDist - Birbhum, West Bengal
62%==%BDHBhedia (2)  05:27+3:2605:28+3:261m--2329.85541mERDist - Bardhaman, West Bengal
63%==%GKHGuskara (2)X  05:40+3:2605:41+3:261m12340.76041mERDist - Bardhaman, West Bengal
64%==%BPSBanpas (3)  05:51+1:5705:52+1:571m--2350.71146mERDist - Bardhaman, West Bengal
65/==%KANKhana Junction (5)X  06:45+2:4506:46+2:451m--2360.45642mERDist - Bardhaman, West Bengal
66/==/BWNBarddhaman Junction (8)XO  07:00+2:5707:20+2:5520m--2373.55034mERDist - Barddhaman, West Bengal
67/==/MYMMemari (4)  07:50+2:4608:00+3:0110m--2398.62225mERMemari, West Bengal
68/==/MUGMagra (3)  09:38+2:1609:43+2:115m--2434.0715mERMagra, West Bengal
69/==/BDCBandel Junction (7)  10:44+1:2310:50+1:236m--2440.83214mERdist - HOOGHLY, West Bengal
70/==/CNSChuchura (3)  10:57-10:58-1m--2444.53615mERDist - HOOGHLY - 712102, West Bengal
71/==/CGRChandan Nagar (3)  11:03+2011:05+202m--2447.55316mERDist -HOOGHLY - 712136, West Bengal
72/==/SHESeoraphuli Junction (6)  11:17+1:5811:19+1:582m--2458.23013mERBaidyabati, West Bengal
73/==/SRPSerampore (4)X  11:24+2:4111:28+2:414m--2460.72811mERdist - hooghly, West Bengal
74/==/HWHKolkata Howrah Junction (23)•  12:10+1:49-12480.2-10mERHowrah 711101, West Bengal
Scroll to Top
Scroll to Bottom